Time;durP1;ratioP1;P1;durP2;ratioP2;P2;SDS_P1;SDS_P2;PMS_P1;PMS_P2;Temp;Humidity;BMP_temperature;BMP_pressure;BME280_temperature;BME280_humidity;BME280_pressure;Samples;Min_cycle;Max_cycle;Signal;HPM_P1;HPM_P2
2022/04/29 00:00:04;;;;;;;;;;;12.80;70.10;;;;;;5066773;28;19938;-68
2022/04/29 00:02:31;;;;;;;;;;;12.80;70.30;;;;;;5084958;28;19958;-68
2022/04/29 00:04:56;;;;;;;;;;;12.80;70.60;;;;;;5077348;28;19912;-68
2022/04/29 00:07:22;;;;;;;;;;;12.70;70.60;;;;;;5088729;28;20015;-68
2022/04/29 00:09:47;;;;;;;;;;;12.70;70.70;;;;;;5073528;28;19958;-68
2022/04/29 00:12:13;;;;;;;;;;;12.70;70.70;;;;;;5080413;28;19936;-68
2022/04/29 00:14:38;;;;;;;;;;;12.70;70.40;;;;;;5076566;28;19916;-68
2022/04/29 00:17:05;;;;;;;;;;;12.60;70.70;;;;;;5077974;28;19970;-67
2022/04/29 00:19:30;;;;;;;;;;;12.60;71.10;;;;;;5072522;28;19962;-67
2022/04/29 00:21:56;;;;;;;;;;;12.50;70.80;;;;;;5078541;28;19920;-68
2022/04/29 00:24:21;;;;;;;;;;;12.50;71.30;;;;;;5072707;28;19955;-67
2022/04/29 00:26:47;;;;;;;;;;;12.50;71.30;;;;;;5069612;28;19919;-68
2022/04/29 00:29:12;;;;;;;;;;;12.50;71.60;;;;;;5075602;28;19923;-67
2022/04/29 00:31:38;;;;;;;;;;;12.50;71.90;;;;;;5076352;28;19912;-68
2022/04/29 00:34:04;;;;;;;;;;;12.40;71.60;;;;;;5075820;28;19908;-67
2022/04/29 00:36:29;;;;;;;;;;;12.40;71.80;;;;;;5070245;28;20382;-68
2022/04/29 00:38:55;;;;;;;;;;;12.40;72.00;;;;;;5073208;28;19908;-68
2022/04/29 00:41:21;;;;;;;;;;;12.40;71.70;;;;;;5073901;28;19916;-68
2022/04/29 00:43:57;;;;;;;;;;;12.30;72.30;;;;;;5081081;28;19915;-67
2022/04/29 00:46:23;;;;;;;;;;;12.30;72.70;;;;;;5075269;28;20289;-67
2022/04/29 00:48:48;;;;;;;;;;;12.30;72.70;;;;;;5078961;28;19987;-68
2022/04/29 00:51:14;;;;;;;;;;;12.20;72.70;;;;;;5070083;28;19916;-68
2022/04/29 00:53:39;;;;;;;;;;;12.20;72.80;;;;;;5073501;28;20006;-67
2022/04/29 00:56:05;;;;;;;;;;;12.20;72.30;;;;;;5073433;28;19908;-67
2022/04/29 00:58:43;;;;;;;;;;;12.20;72.50;;;;;;5081534;28;19918;-68
2022/04/29 01:01:08;;;;;;;;;;;12.10;72.90;;;;;;5069436;28;20349;-67
2022/04/29 01:03:36;;;;;;;;;;;12.10;72.90;;;;;;5076778;28;19922;-68
2022/04/29 01:06:02;;;;;;;;;;;12.10;73.10;;;;;;5074238;28;19912;-67
2022/04/29 01:08:27;;;;;;;;;;;12.00;73.40;;;;;;5067821;28;19932;-67
2022/04/29 01:10:53;;;;;;;;;;;12.00;73.30;;;;;;5081767;28;19959;-67
2022/04/29 01:13:19;;;;;;;;;;;12.00;73.20;;;;;;5075993;28;19962;-68
2022/04/29 01:15:45;;;;;;;;;;;12.00;73.40;;;;;;5077802;28;19916;-67
2022/04/29 01:18:13;;;;;;;;;;;12.00;73.40;;;;;;5078723;28;19931;-67
2022/04/29 01:20:39;;;;;;;;;;;12.00;73.40;;;;;;5077414;28;20061;-67
2022/04/29 01:23:09;;;;;;;;;;;11.90;73.60;;;;;;5073574;28;20350;-67
2022/04/29 01:25:35;;;;;;;;;;;11.90;73.30;;;;;;5079835;28;19952;-68
2022/04/29 01:28:00;;;;;;;;;;;11.90;73.50;;;;;;5069334;28;20010;-68
2022/04/29 01:30:26;;;;;;;;;;;11.90;73.80;;;;;;5079883;28;19930;-68
2022/04/29 01:32:52;;;;;;;;;;;11.80;74.00;;;;;;5070576;28;19908;-68
2022/04/29 01:35:17;;;;;;;;;;;11.80;74.00;;;;;;5077287;28;19931;-67
2022/04/29 01:37:43;;;;;;;;;;;11.80;73.90;;;;;;5071191;28;19993;-68
2022/04/29 01:40:09;;;;;;;;;;;11.80;73.80;;;;;;5069356;28;19912;-68
2022/04/29 01:42:36;;;;;;;;;;;11.70;73.90;;;;;;5078477;28;19916;-67
2022/04/29 01:45:02;;;;;;;;;;;11.70;74.00;;;;;;5072226;28;19916;-67
2022/04/29 01:47:27;;;;;;;;;;;11.70;74.00;;;;;;5079308;28;19974;-67
2022/04/29 01:49:53;;;;;;;;;;;11.70;74.20;;;;;;5070712;28;19985;-67
2022/04/29 01:52:18;;;;;;;;;;;11.70;74.20;;;;;;5079049;28;19922;-68
2022/04/29 01:54:44;;;;;;;;;;;11.60;74.00;;;;;;5077486;28;19916;-68
2022/04/29 01:57:09;;;;;;;;;;;11.60;74.20;;;;;;5077435;28;20371;-67
2022/04/29 01:59:35;;;;;;;;;;;11.60;74.20;;;;;;5069760;28;19920;-67
2022/04/29 02:02:02;;;;;;;;;;;11.60;74.30;;;;;;5079409;28;20417;-68
2022/04/29 02:04:28;;;;;;;;;;;11.60;74.30;;;;;;5071893;28;19916;-68
2022/04/29 02:06:54;;;;;;;;;;;11.50;74.20;;;;;;5081277;28;19961;-68
2022/04/29 02:09:19;;;;;;;;;;;11.50;74.40;;;;;;5072807;28;20238;-68
2022/04/29 02:12:04;;;;;;;;;;;11.50;74.50;;;;;;5073634;28;19916;-67
2022/04/29 02:14:30;;;;;;;;;;;11.50;74.40;;;;;;5076173;28;20396;-68
2022/04/29 02:16:55;;;;;;;;;;;11.50;74.50;;;;;;5079452;28;19924;-68
2022/04/29 02:19:22;;;;;;;;;;;11.40;74.60;;;;;;5071170;28;19993;-68
2022/04/29 02:21:48;;;;;;;;;;;11.40;74.60;;;;;;5077612;28;19929;-68
2022/04/29 02:24:13;;;;;;;;;;;11.40;74.70;;;;;;5080714;28;19916;-68
2022/04/29 02:26:38;;;;;;;;;;;11.40;74.60;;;;;;5071688;28;19915;-68
2022/04/29 02:29:04;;;;;;;;;;;11.40;74.60;;;;;;5085994;28;20276;-68
2022/04/29 02:31:29;;;;;;;;;;;11.30;74.80;;;;;;5074571;28;19920;-67
2022/04/29 02:33:55;;;;;;;;;;;11.30;74.80;;;;;;5082291;28;19991;-68
2022/04/29 02:36:21;;;;;;;;;;;11.30;74.90;;;;;;5080205;28;19916;-68
2022/04/29 02:38:46;;;;;;;;;;;11.30;75.00;;;;;;5084643;28;19918;-68
2022/04/29 02:41:12;;;;;;;;;;;11.30;75.00;;;;;;5075652;28;19991;-67
2022/04/29 02:43:40;;;;;;;;;;;11.30;75.10;;;;;;5082563;28;19926;-67
2022/04/29 02:46:05;;;;;;;;;;;11.20;74.90;;;;;;5069425;28;19991;-68
2022/04/29 02:48:31;;;;;;;;;;;11.20;75.10;;;;;;5079883;28;21140;-68
2022/04/29 02:50:56;;;;;;;;;;;11.20;75.00;;;;;;5076186;28;19920;-68
2022/04/29 02:53:22;;;;;;;;;;;11.20;75.10;;;;;;5078881;28;19916;-68
2022/04/29 02:55:47;;;;;;;;;;;11.20;75.20;;;;;;5082397;28;19995;-67
2022/04/29 02:58:13;;;;;;;;;;;11.20;75.10;;;;;;5076965;28;19935;-68
2022/04/29 03:00:39;;;;;;;;;;;11.20;75.10;;;;;;5078273;28;20366;-67
2022/04/29 03:03:05;;;;;;;;;;;11.20;75.10;;;;;;5074809;28;19916;-68
2022/04/29 03:05:31;;;;;;;;;;;11.10;75.00;;;;;;5080565;28;19909;-68
2022/04/29 03:07:56;;;;;;;;;;;11.10;75.20;;;;;;5075453;28;20290;-68
2022/04/29 03:10:22;;;;;;;;;;;11.10;75.20;;;;;;5077447;28;19913;-67
2022/04/29 03:12:47;;;;;;;;;;;11.10;75.40;;;;;;5068652;28;19924;-67
2022/04/29 03:15:16;;;;;;;;;;;11.10;75.30;;;;;;5082934;28;19908;-68
2022/04/29 03:20:33;;;;;;;;;;;11.00;75.30;;;;;;5093552;28;20019;-68
2022/04/29 03:22:58;;;;;;;;;;;11.00;75.30;;;;;;5074160;28;19917;-68
2022/04/29 03:25:24;;;;;;;;;;;11.00;75.50;;;;;;5082126;28;20315;-68
2022/04/29 03:27:49;;;;;;;;;;;11.00;75.30;;;;;;5069356;28;19913;-68
2022/04/29 03:30:15;;;;;;;;;;;11.00;75.40;;;;;;5083318;28;20427;-68
2022/04/29 03:32:40;;;;;;;;;;;11.00;75.50;;;;;;5074732;28;19920;-68
2022/04/29 03:35:06;;;;;;;;;;;10.90;75.30;;;;;;5080047;28;19913;-68
2022/04/29 03:37:32;;;;;;;;;;;10.90;75.40;;;;;;5071294;28;20275;-68
2022/04/29 03:39:57;;;;;;;;;;;10.90;75.40;;;;;;5080013;28;19927;-68
2022/04/29 03:42:22;;;;;;;;;;;10.90;75.30;;;;;;5073871;28;19919;-68
2022/04/29 03:44:48;;;;;;;;;;;10.90;75.50;;;;;;5072638;28;19912;-68
2022/04/29 03:47:13;;;;;;;;;;;10.90;75.50;;;;;;5083481;28;20396;-68
2022/04/29 03:49:39;;;;;;;;;;;10.90;75.40;;;;;;5072266;28;19927;-67
2022/04/29 03:52:05;;;;;;;;;;;10.90;75.50;;;;;;5078605;28;19922;-68
2022/04/29 03:54:30;;;;;;;;;;;10.80;75.50;;;;;;5071453;28;20011;-68
2022/04/29 03:56:56;;;;;;;;;;;10.80;75.40;;;;;;5083865;28;19981;-68
2022/04/29 03:59:22;;;;;;;;;;;10.80;75.60;;;;;;5073106;28;19916;-68
2022/04/29 04:01:47;;;;;;;;;;;10.80;75.60;;;;;;5088353;28;19994;-68
2022/04/29 04:04:13;;;;;;;;;;;10.80;75.60;;;;;;5067829;28;20483;-68
2022/04/29 04:06:50;;;;;;;;;;;10.80;75.50;;;;;;5077583;28;20353;-67
2022/04/29 04:09:17;;;;;;;;;;;10.80;75.50;;;;;;5072825;28;19912;-68
2022/04/29 04:11:42;;;;;;;;;;;10.70;75.60;;;;;;5086601;28;19915;-68
2022/04/29 04:14:08;;;;;;;;;;;10.70;75.60;;;;;;5071902;28;20408;-68
2022/04/29 04:16:35;;;;;;;;;;;10.70;75.60;;;;;;5071770;28;19961;-68
2022/04/29 04:19:01;;;;;;;;;;;10.70;75.60;;;;;;5076000;28;20253;-68
2022/04/29 04:21:26;;;;;;;;;;;10.70;75.60;;;;;;5077122;28;19917;-68
2022/04/29 04:23:53;;;;;;;;;;;10.70;75.40;;;;;;5072940;28;19909;-67
2022/04/29 04:26:19;;;;;;;;;;;10.70;75.60;;;;;;5074985;28;20405;-68
2022/04/29 04:28:44;;;;;;;;;;;10.70;75.60;;;;;;5072099;28;19912;-67
2022/04/29 04:31:09;;;;;;;;;;;10.70;75.60;;;;;;5070073;28;19917;-67
2022/04/29 04:33:35;;;;;;;;;;;10.70;75.60;;;;;;5076643;28;20448;-68
2022/04/29 04:36:01;;;;;;;;;;;10.60;75.60;;;;;;5071498;28;19966;-68
2022/04/29 04:38:26;;;;;;;;;;;10.60;75.60;;;;;;5085853;28;20014;-68
2022/04/29 04:40:53;;;;;;;;;;;10.60;75.60;;;;;;5074453;27;20098;-68
2022/04/29 04:43:20;;;;;;;;;;;10.60;75.50;;;;;;5078486;28;19917;-68
2022/04/29 04:45:46;;;;;;;;;;;10.60;75.40;;;;;;5071579;28;19913;-68
2022/04/29 04:48:12;;;;;;;;;;;10.60;75.40;;;;;;5089399;28;19930;-68
2022/04/29 04:50:37;;;;;;;;;;;10.60;75.50;;;;;;5073541;28;20026;-68
2022/04/29 04:53:02;;;;;;;;;;;10.60;75.60;;;;;;5075889;28;19944;-68
2022/04/29 04:55:28;;;;;;;;;;;10.60;75.50;;;;;;5077022;28;19934;-68
2022/04/29 04:57:53;;;;;;;;;;;10.60;75.40;;;;;;5074998;28;19917;-68
2022/04/29 05:00:19;;;;;;;;;;;10.60;75.80;;;;;;5071129;28;20627;-68
2022/04/29 05:02:45;;;;;;;;;;;10.60;75.50;;;;;;5074562;28;19916;-67
2022/04/29 05:05:10;;;;;;;;;;;10.60;75.50;;;;;;5079047;28;19916;-68
2022/04/29 05:07:38;;;;;;;;;;;10.60;75.70;;;;;;5072147;28;19922;-67
2022/04/29 05:10:07;;;;;;;;;;;10.50;75.50;;;;;;5072071;28;19951;-68
2022/04/29 05:12:37;;;;;;;;;;;10.60;75.50;;;;;;5074873;28;19916;-67
2022/04/29 05:15:02;;;;;;;;;;;10.60;75.40;;;;;;5077389;28;19908;-68
2022/04/29 05:17:28;;;;;;;;;;;10.60;75.60;;;;;;5075968;28;19923;-68
2022/04/29 05:19:53;;;;;;;;;;;10.60;75.60;;;;;;5079256;28;20368;-67
2022/04/29 05:22:20;;;;;;;;;;;10.60;75.40;;;;;;5069641;28;19908;-68
2022/04/29 05:24:47;;;;;;;;;;;10.50;75.20;;;;;;5080100;28;19974;-68
2022/04/29 05:27:12;;;;;;;;;;;10.50;75.20;;;;;;5076168;28;20096;-68
2022/04/29 05:29:37;;;;;;;;;;;10.50;75.20;;;;;;5074472;28;20010;-68
2022/04/29 05:32:04;;;;;;;;;;;10.50;75.20;;;;;;5073068;28;19908;-67
2022/04/29 05:34:29;;;;;;;;;;;10.50;75.20;;;;;;5076445;28;19912;-68
2022/04/29 05:36:55;;;;;;;;;;;10.50;75.30;;;;;;5074604;28;19927;-67
2022/04/29 05:42:18;;;;;;;;;;;10.50;75.30;;;;;;5076605;28;20599;-68
2022/04/29 05:44:44;;;;;;;;;;;10.50;75.30;;;;;;5075294;28;20029;-67
2022/04/29 05:47:10;;;;;;;;;;;10.50;75.40;;;;;;5072485;28;20527;-68
2022/04/29 05:49:35;;;;;;;;;;;10.50;75.30;;;;;;5071866;28;20347;-68
2022/04/29 05:52:02;;;;;;;;;;;10.50;75.40;;;;;;5076621;28;20015;-67
2022/04/29 05:54:28;;;;;;;;;;;10.50;75.40;;;;;;5073902;28;20749;-67
2022/04/29 05:56:53;;;;;;;;;;;10.50;75.30;;;;;;5085233;28;19916;-68
2022/04/29 05:59:19;;;;;;;;;;;10.50;75.30;;;;;;5080371;28;19916;-68
2022/04/29 06:01:44;;;;;;;;;;;10.50;75.40;;;;;;5083465;28;20384;-67
2022/04/29 06:04:10;;;;;;;;;;;10.60;75.40;;;;;;5079772;28;19969;-68
2022/04/29 06:06:36;;;;;;;;;;;10.60;75.30;;;;;;5090994;28;19916;-68
2022/04/29 06:09:01;;;;;;;;;;;10.60;75.30;;;;;;5071452;28;20418;-68
2022/04/29 06:11:27;;;;;;;;;;;10.60;75.20;;;;;;5079652;28;19913;-67
2022/04/29 06:13:53;;;;;;;;;;;10.60;75.20;;;;;;5070159;28;20264;-67
2022/04/29 06:16:19;;;;;;;;;;;10.70;75.20;;;;;;5083874;28;19996;-67
2022/04/29 06:18:45;;;;;;;;;;;10.70;75.20;;;;;;5076616;28;19912;-68
2022/04/29 06:21:11;;;;;;;;;;;10.70;75.00;;;;;;5082771;28;19919;-67
2022/04/29 06:23:36;;;;;;;;;;;10.70;75.00;;;;;;5072122;28;19912;-67
2022/04/29 06:26:02;;;;;;;;;;;10.80;75.00;;;;;;5074517;28;19912;-67
2022/04/29 06:28:27;;;;;;;;;;;10.80;75.00;;;;;;5076146;28;20304;-67
2022/04/29 06:30:53;;;;;;;;;;;10.80;74.90;;;;;;5072353;28;20000;-67
2022/04/29 06:33:18;;;;;;;;;;;10.90;74.80;;;;;;5085985;28;19909;-67
2022/04/29 06:35:44;;;;;;;;;;;10.90;74.80;;;;;;5073727;28;19916;-68
2022/04/29 06:38:10;;;;;;;;;;;10.90;74.70;;;;;;5081354;28;19922;-67
2022/04/29 06:40:36;;;;;;;;;;;11.00;74.60;;;;;;5069016;28;19924;-68
2022/04/29 06:43:01;;;;;;;;;;;11.00;74.60;;;;;;5083463;28;20050;-67
2022/04/29 06:45:27;;;;;;;;;;;11.00;74.50;;;;;;5078403;28;19912;-67
2022/04/29 06:47:52;;;;;;;;;;;11.10;74.40;;;;;;5084531;28;20384;-68
2022/04/29 06:50:18;;;;;;;;;;;11.10;74.40;;;;;;5076786;28;19927;-67
2022/04/29 06:52:43;;;;;;;;;;;11.20;74.40;;;;;;5080741;28;19977;-67
2022/04/29 06:55:09;;;;;;;;;;;11.20;74.30;;;;;;5082555;28;19912;-67
2022/04/29 06:57:34;;;;;;;;;;;11.20;74.30;;;;;;5077794;28;19958;-67
2022/04/29 07:00:00;;;;;;;;;;;11.20;74.30;;;;;;5073411;28;19916;-67
2022/04/29 07:02:26;;;;;;;;;;;11.30;74.40;;;;;;5081982;28;20334;-67
2022/04/29 07:04:54;;;;;;;;;;;11.30;74.30;;;;;;5068803;28;19912;-67
2022/04/29 07:07:19;;;;;;;;;;;11.30;74.40;;;;;;5077494;28;20449;-67
2022/04/29 07:09:45;;;;;;;;;;;11.30;74.40;;;;;;5083426;28;19912;-67
2022/04/29 07:12:11;;;;;;;;;;;11.30;74.40;;;;;;5072745;28;20623;-67
2022/04/29 07:14:36;;;;;;;;;;;11.30;74.50;;;;;;5082263;28;19922;-67
2022/04/29 07:17:02;;;;;;;;;;;11.30;74.60;;;;;;5076331;28;19920;-67
2022/04/29 07:19:28;;;;;;;;;;;11.30;74.50;;;;;;5085406;28;20030;-67
2022/04/29 07:21:53;;;;;;;;;;;11.30;74.70;;;;;;5072892;28;20470;-67
2022/04/29 07:24:19;;;;;;;;;;;11.30;74.60;;;;;;5091777;28;19931;-67
2022/04/29 07:26:45;;;;;;;;;;;11.30;74.60;;;;;;5073261;28;19912;-67
2022/04/29 07:29:10;;;;;;;;;;;11.30;74.60;;;;;;5078517;28;19916;-67
2022/04/29 07:31:36;;;;;;;;;;;11.40;74.70;;;;;;5073887;28;19912;-67
2022/04/29 07:34:01;;;;;;;;;;;11.40;74.50;;;;;;5078964;28;20014;-67
2022/04/29 07:41:55;;;;;;;;;;;11.60;74.20;;;;;;5073972;28;20582;-67
2022/04/29 07:44:21;;;;;;;;;;;11.60;74.10;;;;;;5077739;28;19920;-67
2022/04/29 07:46:47;;;;;;;;;;;11.70;74.00;;;;;;5074816;28;19916;-67
2022/04/29 07:49:13;;;;;;;;;;;11.70;73.70;;;;;;5073120;28;19959;-67
2022/04/29 07:51:39;;;;;;;;;;;11.80;73.50;;;;;;5074228;28;19956;-67
2022/04/29 07:54:05;;;;;;;;;;;11.90;73.30;;;;;;5081973;28;20398;-67
2022/04/29 07:56:30;;;;;;;;;;;11.90;73.10;;;;;;5081282;28;19912;-67
2022/04/29 07:58:57;;;;;;;;;;;12.10;73.20;;;;;;5068666;28;19916;-67
2022/04/29 08:01:23;;;;;;;;;;;12.10;72.90;;;;;;5082350;28;19990;-67
2022/04/29 08:03:48;;;;;;;;;;;12.20;72.70;;;;;;5073397;28;20010;-67
2022/04/29 08:06:14;;;;;;;;;;;12.30;72.50;;;;;;5087352;28;19916;-67
2022/04/29 08:08:40;;;;;;;;;;;12.40;72.20;;;;;;5072805;28;19947;-67
2022/04/29 08:11:06;;;;;;;;;;;12.50;72.00;;;;;;5078831;28;20122;-67
2022/04/29 08:13:32;;;;;;;;;;;12.50;72.00;;;;;;5078422;28;19918;-67
2022/04/29 08:15:59;;;;;;;;;;;12.60;71.90;;;;;;5079967;28;19920;-67
2022/04/29 08:18:25;;;;;;;;;;;12.70;72.00;;;;;;5078739;28;19916;-67
2022/04/29 08:20:50;;;;;;;;;;;12.70;72.00;;;;;;5084688;28;20033;-67
2022/04/29 08:23:15;;;;;;;;;;;12.70;71.70;;;;;;5070647;28;20396;-67
2022/04/29 08:25:41;;;;;;;;;;;12.80;71.70;;;;;;5072713;28;19969;-67
2022/04/29 08:28:06;;;;;;;;;;;12.80;71.70;;;;;;5074680;28;20476;-67
2022/04/29 08:30:32;;;;;;;;;;;12.80;71.70;;;;;;5071970;28;19980;-67
2022/04/29 08:32:59;;;;;;;;;;;12.80;71.90;;;;;;5088434;28;19962;-67
2022/04/29 08:35:25;;;;;;;;;;;12.80;71.60;;;;;;5078494;28;19932;-67
2022/04/29 08:37:51;;;;;;;;;;;12.80;71.60;;;;;;5082409;28;19938;-67
2022/04/29 08:40:16;;;;;;;;;;;12.80;71.70;;;;;;5075505;28;20264;-67
2022/04/29 08:42:42;;;;;;;;;;;12.80;71.70;;;;;;5089863;28;19944;-67
2022/04/29 08:45:09;;;;;;;;;;;12.90;71.90;;;;;;5071256;28;19923;-67
2022/04/29 08:47:36;;;;;;;;;;;12.90;72.00;;;;;;5087814;28;19961;-67
2022/04/29 08:50:03;;;;;;;;;;;12.80;71.90;;;;;;5072970;28;19920;-67
2022/04/29 08:52:29;;;;;;;;;;;12.90;72.00;;;;;;5090771;28;19920;-67
2022/04/29 09:00:23;;;;;;;;;;;12.90;72.00;;;;;;5076050;28;19983;-67
2022/04/29 09:02:49;;;;;;;;;;;12.90;72.00;;;;;;5071006;28;19924;-67
2022/04/29 09:05:14;;;;;;;;;;;13.00;72.00;;;;;;5069501;28;19922;-67
2022/04/29 09:07:56;;;;;;;;;;;13.00;72.00;;;;;;5072421;28;19924;-67
2022/04/29 09:10:22;;;;;;;;;;;13.00;71.90;;;;;;5069508;28;19917;-67
2022/04/29 09:12:48;;;;;;;;;;;13.10;71.90;;;;;;5071127;28;19920;-67
2022/04/29 09:15:14;;;;;;;;;;;13.10;71.80;;;;;;5070439;28;20306;-67
2022/04/29 09:17:46;;;;;;;;;;;13.20;71.70;;;;;;5079162;28;20272;-67
2022/04/29 09:20:16;;;;;;;;;;;13.20;71.60;;;;;;5079529;28;19912;-67
2022/04/29 09:22:59;;;;;;;;;;;13.30;71.50;;;;;;5082139;28;20280;-67
2022/04/29 09:25:25;;;;;;;;;;;13.30;71.30;;;;;;5078597;28;19913;-67
2022/04/29 09:27:57;;;;;;;;;;;13.40;71.10;;;;;;5073341;28;19924;-67
2022/04/29 09:30:32;;;;;;;;;;;13.40;71.10;;;;;;5077653;28;19913;-67
2022/04/29 09:32:57;;;;;;;;;;;13.50;70.90;;;;;;5080997;28;20087;-67
2022/04/29 09:35:39;;;;;;;;;;;13.60;70.90;;;;;;5080507;28;19912;-67
2022/04/29 09:40:50;;;;;;;;;;;13.70;70.70;;;;;;5070166;28;19987;-67
2022/04/29 09:43:15;;;;;;;;;;;13.80;70.70;;;;;;5081169;28;19924;-67
2022/04/29 09:45:41;;;;;;;;;;;13.90;70.70;;;;;;5078209;28;20333;-67
2022/04/29 09:48:08;;;;;;;;;;;13.90;70.40;;;;;;5073019;28;19916;-67
2022/04/29 09:50:44;;;;;;;;;;;13.90;70.50;;;;;;5086042;28;19915;-67
2022/04/29 09:53:20;;;;;;;;;;;13.90;70.20;;;;;;5081767;28;19912;-67
2022/04/29 09:56:06;;;;;;;;;;;14.00;70.30;;;;;;5086003;28;19918;-67
2022/04/29 09:58:31;;;;;;;;;;;14.00;70.40;;;;;;5074695;28;19923;-67
2022/04/29 10:00:57;;;;;;;;;;;14.00;70.30;;;;;;5088862;28;19935;-67
2022/04/29 10:03:23;;;;;;;;;;;14.10;70.30;;;;;;5078883;28;19919;-67
2022/04/29 10:05:49;;;;;;;;;;;14.10;70.30;;;;;;5085488;28;19935;-67
2022/04/29 10:08:15;;;;;;;;;;;14.10;70.40;;;;;;5070230;28;19916;-67
2022/04/29 10:10:41;;;;;;;;;;;14.20;70.40;;;;;;5084253;28;19966;-67
2022/04/29 10:13:07;;;;;;;;;;;14.20;70.20;;;;;;5075148;28;19919;-67
2022/04/29 10:15:35;;;;;;;;;;;14.20;70.20;;;;;;5083798;28;19911;-67
2022/04/29 10:23:32;;;;;;;;;;;14.40;70.30;;;;;;5074461;28;20473;-67
2022/04/29 10:25:57;;;;;;;;;;;14.50;69.70;;;;;;5083541;28;19920;-67
2022/04/29 10:28:23;;;;;;;;;;;14.60;69.80;;;;;;5084249;28;19969;-67
2022/04/29 10:31:03;;;;;;;;;;;14.60;69.70;;;;;;5075829;28;19912;-67
2022/04/29 10:33:29;;;;;;;;;;;14.60;69.50;;;;;;5082590;28;19999;-67
2022/04/29 10:35:56;;;;;;;;;;;14.70;69.50;;;;;;5076249;28;20733;-67
2022/04/29 10:38:28;;;;;;;;;;;14.80;69.30;;;;;;5080216;28;19920;-67
2022/04/29 10:41:15;;;;;;;;;;;14.90;69.30;;;;;;5073510;28;19917;-67
2022/04/29 10:43:43;;;;;;;;;;;15.00;69.20;;;;;;5074378;28;19991;-67
2022/04/29 10:46:08;;;;;;;;;;;15.00;69.00;;;;;;5079714;28;19960;-67
2022/04/29 10:48:34;;;;;;;;;;;15.00;68.90;;;;;;5080749;28;19940;-67
2022/04/29 10:51:09;;;;;;;;;;;15.10;68.90;;;;;;5079218;28;19936;-67
2022/04/29 10:53:39;;;;;;;;;;;15.10;68.80;;;;;;5083615;28;19915;-67
2022/04/29 10:56:27;;;;;;;;;;;15.20;68.90;;;;;;5075248;28;19916;-67
2022/04/29 10:58:54;;;;;;;;;;;15.20;68.80;;;;;;5059456;28;19920;-67
2022/04/29 11:01:27;;;;;;;;;;;15.30;68.50;;;;;;5078484;28;20361;-67
2022/04/29 11:03:53;;;;;;;;;;;15.40;68.40;;;;;;5074078;28;20399;-67
2022/04/29 11:06:19;;;;;;;;;;;15.40;68.40;;;;;;5073469;28;19969;-67
2022/04/29 11:08:46;;;;;;;;;;;15.50;68.30;;;;;;5078905;28;20013;-67
2022/04/29 11:11:12;;;;;;;;;;;15.50;68.30;;;;;;5075812;28;19954;-67
2022/04/29 11:13:44;;;;;;;;;;;15.50;68.30;;;;;;5076231;28;20015;-67
2022/04/29 11:16:10;;;;;;;;;;;15.60;68.30;;;;;;5073461;28;19930;-67
2022/04/29 11:18:36;;;;;;;;;;;15.60;68.30;;;;;;5087096;28;19916;-67
2022/04/29 11:24:40;;;;;;;;;;;15.60;68.60;;;;;;5073785;28;20581;-67
2022/04/29 11:26:47;;;;;;;;;;;15.60;68.50;;;;;;5066666;28;19957;-67
2022/04/29 11:29:13;;;;;;;;;;;15.70;68.40;;;;;;5074781;28;19927;-67
2022/04/29 11:31:39;;;;;;;;;;;15.70;68.30;;;;;;5074051;28;19915;-67
2022/04/29 11:34:06;;;;;;;;;;;15.80;68.20;;;;;;5080703;28;19916;-67
2022/04/29 11:36:32;;;;;;;;;;;15.80;68.10;;;;;;5067333;28;19921;-67
2022/04/29 11:38:57;;;;;;;;;;;15.90;68.00;;;;;;5076710;28;19920;-67
2022/04/29 11:41:27;;;;;;;;;;;16.00;67.70;;;;;;5076326;28;19912;-67
2022/04/29 11:43:53;;;;;;;;;;;16.00;67.80;;;;;;5069586;28;20458;-67
2022/04/29 11:46:19;;;;;;;;;;;16.10;67.90;;;;;;5073878;28;19916;-67
2022/04/29 11:48:52;;;;;;;;;;;16.20;67.50;;;;;;5076244;28;19917;-67
2022/04/29 11:51:17;;;;;;;;;;;16.20;67.40;;;;;;5065939;28;19916;-67
2022/04/29 11:54:12;;;;;;;;;;;16.30;67.20;;;;;;5069792;28;20427;-67
2022/04/29 11:56:39;;;;;;;;;;;16.40;67.20;;;;;;5063232;28;19916;-67
2022/04/29 11:59:08;;;;;;;;;;;16.40;67.00;;;;;;5067541;28;19909;-67
2022/04/29 12:01:34;;;;;;;;;;;16.50;66.90;;;;;;5076595;28;19916;-67
2022/04/29 12:04:02;;;;;;;;;;;16.50;66.80;;;;;;5076071;28;20408;-67
2022/04/29 12:06:28;;;;;;;;;;;16.50;66.70;;;;;;5077803;28;19916;-67
2022/04/29 12:08:54;;;;;;;;;;;16.60;66.90;;;;;;5080737;28;19916;-67
2022/04/29 12:11:30;;;;;;;;;;;16.60;66.70;;;;;;5077093;28;20007;-67
2022/04/29 12:13:56;;;;;;;;;;;16.60;66.70;;;;;;5071071;28;20610;-67
2022/04/29 12:16:22;;;;;;;;;;;16.60;66.90;;;;;;5079026;28;19915;-67
2022/04/29 12:18:48;;;;;;;;;;;16.70;66.80;;;;;;5069892;28;20619;-67
2022/04/29 12:21:24;;;;;;;;;;;16.70;66.60;;;;;;5076324;28;20467;-67
2022/04/29 12:23:50;;;;;;;;;;;16.80;66.40;;;;;;5070104;28;20031;-67
2022/04/29 12:26:15;;;;;;;;;;;16.80;66.40;;;;;;5073091;28;19936;-67
2022/04/29 12:28:41;;;;;;;;;;;16.90;66.40;;;;;;5077191;28;19944;-67
2022/04/29 12:36:46;;;;;;;;;;;17.00;66.20;;;;;;5084752;28;20526;-67
2022/04/29 12:39:12;;;;;;;;;;;17.10;66.10;;;;;;5072479;28;20005;-67
2022/04/29 12:41:38;;;;;;;;;;;17.10;66.20;;;;;;5077402;28;20391;-67
2022/04/29 12:44:07;;;;;;;;;;;17.10;66.20;;;;;;5065961;28;19908;-67
2022/04/29 12:46:33;;;;;;;;;;;17.10;66.00;;;;;;5079124;28;19912;-67
2022/04/29 12:48:58;;;;;;;;;;;17.10;66.20;;;;;;5078420;28;19919;-67
2022/04/29 12:51:34;;;;;;;;;;;17.10;66.00;;;;;;5082859;28;19941;-67
2022/04/29 12:54:00;;;;;;;;;;;17.20;66.30;;;;;;5081246;28;20210;-67
2022/04/29 12:56:27;;;;;;;;;;;17.10;66.20;;;;;;5075147;28;19955;-67
2022/04/29 12:58:52;;;;;;;;;;;17.20;66.30;;;;;;5073476;28;19924;-68
2022/04/29 13:01:18;;;;;;;;;;;17.10;66.10;;;;;;5068162;28;19921;-67
2022/04/29 13:03:54;;;;;;;;;;;17.20;66.40;;;;;;5078755;28;19916;-67
2022/04/29 13:06:20;;;;;;;;;;;17.20;66.60;;;;;;5074158;28;20382;-67
2022/04/29 13:08:46;;;;;;;;;;;17.20;66.30;;;;;;5072506;27;19959;-68
2022/04/29 13:11:16;;;;;;;;;;;17.10;66.30;;;;;;5070513;28;19924;-67
2022/04/29 13:13:42;;;;;;;;;;;17.10;66.30;;;;;;5074181;28;20373;-68
2022/04/29 13:16:07;;;;;;;;;;;17.20;66.40;;;;;;5074008;28;19994;-67
2022/04/29 13:18:33;;;;;;;;;;;17.10;66.60;;;;;;5082207;28;20482;-67
2022/04/29 13:21:00;;;;;;;;;;;17.00;66.80;;;;;;5076921;28;19956;-68
2022/04/29 13:23:25;;;;;;;;;;;17.00;66.90;;;;;;5079576;28;19913;-68
2022/04/29 13:25:51;;;;;;;;;;;17.00;67.10;;;;;;5075648;28;19916;-68
2022/04/29 13:28:17;;;;;;;;;;;16.90;67.10;;;;;;5081749;28;20007;-67
2022/04/29 13:30:42;;;;;;;;;;;17.00;67.10;;;;;;5074830;28;19984;-67
2022/04/29 13:33:08;;;;;;;;;;;16.90;66.90;;;;;;5075791;28;19920;-67
2022/04/29 13:35:37;;;;;;;;;;;16.90;67.00;;;;;;5071339;28;19916;-68
2022/04/29 13:38:04;;;;;;;;;;;16.90;67.00;;;;;;5076073;28;19970;-68
2022/04/29 13:40:29;;;;;;;;;;;16.90;67.30;;;;;;5072695;28;19919;-68
2022/04/29 13:42:55;;;;;;;;;;;16.80;67.30;;;;;;5077204;28;20614;-68
2022/04/29 13:45:20;;;;;;;;;;;16.80;67.20;;;;;;5080244;28;19920;-68
2022/04/29 13:47:46;;;;;;;;;;;16.80;67.30;;;;;;5072079;28;20331;-68
2022/04/29 13:50:12;;;;;;;;;;;16.80;67.30;;;;;;5073554;28;20728;-67
2022/04/29 13:55:21;;;;;;;;;;;16.70;67.50;;;;;;5082056;28;20015;-67
2022/04/29 13:57:47;;;;;;;;;;;16.70;67.50;;;;;;5071622;28;20007;-68
2022/04/29 14:00:13;;;;;;;;;;;16.70;67.50;;;;;;5077353;28;19923;-68
2022/04/29 14:02:39;;;;;;;;;;;16.70;67.60;;;;;;5065086;28;19916;-67
2022/04/29 14:05:05;;;;;;;;;;;16.70;67.50;;;;;;5082774;28;19931;-67
2022/04/29 14:07:31;;;;;;;;;;;16.60;67.60;;;;;;5070527;28;19919;-68
2022/04/29 14:09:56;;;;;;;;;;;16.60;67.60;;;;;;5081647;28;20419;-67
2022/04/29 14:12:23;;;;;;;;;;;16.60;67.30;;;;;;5072730;28;19916;-67
2022/04/29 14:14:49;;;;;;;;;;;16.60;67.40;;;;;;5077260;28;19912;-67
2022/04/29 14:17:15;;;;;;;;;;;16.60;67.50;;;;;;5074863;28;20430;-67
2022/04/29 14:19:41;;;;;;;;;;;16.60;67.60;;;;;;5082382;28;19915;-67
2022/04/29 14:22:06;;;;;;;;;;;16.50;67.60;;;;;;5078849;28;19920;-67
2022/04/29 14:24:33;;;;;;;;;;;16.50;67.50;;;;;;5078540;28;19915;-68
2022/04/29 14:27:00;;;;;;;;;;;16.50;67.50;;;;;;5075659;28;19915;-67
2022/04/29 14:29:25;;;;;;;;;;;16.50;67.70;;;;;;5079165;28;20035;-66
2022/04/29 14:31:51;;;;;;;;;;;16.50;67.80;;;;;;5075485;28;20384;-66
2022/04/29 14:34:17;;;;;;;;;;;16.40;67.80;;;;;;5072998;28;20331;-68
2022/04/29 14:36:42;;;;;;;;;;;16.40;68.00;;;;;;5087747;28;19911;-68
2022/04/29 14:39:08;;;;;;;;;;;16.40;67.90;;;;;;5074642;28;19939;-68
2022/04/29 14:41:34;;;;;;;;;;;16.40;67.80;;;;;;5079746;28;20041;-68
2022/04/29 14:43:59;;;;;;;;;;;16.40;67.80;;;;;;5076907;28;19949;-69
2022/04/29 14:46:26;;;;;;;;;;;16.40;67.70;;;;;;5092860;28;19920;-68
2022/04/29 14:48:52;;;;;;;;;;;16.40;67.80;;;;;;5074086;28;20660;-68